createdAt,value
2018-07-19T00:00:36.746Z,18.70
2018-07-19T00:01:36.749Z,18.76
2018-07-19T00:02:36.750Z,18.73
2018-07-19T00:03:36.752Z,18.76
2018-07-19T00:04:36.754Z,18.68
2018-07-19T00:05:36.756Z,18.60
2018-07-19T00:06:36.757Z,18.64
2018-07-19T00:07:36.759Z,18.57
2018-07-19T00:08:36.760Z,18.58
2018-07-19T00:09:36.763Z,18.57
2018-07-19T00:10:36.763Z,18.55
2018-07-19T00:11:36.765Z,18.49
2018-07-19T00:12:36.767Z,18.41
2018-07-19T00:13:36.769Z,18.48
2018-07-19T00:14:36.769Z,18.41
2018-07-19T00:15:36.773Z,18.41
2018-07-19T00:16:36.773Z,18.39
2018-07-19T00:17:36.776Z,18.42
2018-07-19T00:18:36.775Z,18.49
2018-07-19T00:19:36.777Z,18.48
2018-07-19T00:20:36.780Z,18.45
2018-07-19T00:21:36.783Z,18.42
2018-07-19T00:22:36.782Z,18.31
2018-07-19T00:23:36.785Z,18.46
2018-07-19T00:24:36.785Z,18.36
2018-07-19T00:25:36.789Z,18.49
2018-07-19T00:26:36.788Z,18.48
2018-07-19T00:27:36.791Z,18.46
2018-07-19T00:28:36.791Z,18.48
2018-07-19T00:29:36.793Z,18.55
2018-07-19T00:30:36.794Z,18.57
2018-07-19T00:31:36.795Z,18.58
2018-07-19T00:32:36.798Z,18.52
2018-07-19T00:33:36.800Z,18.52
2018-07-19T00:34:36.799Z,18.51
2018-07-19T00:35:36.802Z,18.46
2018-07-19T00:36:36.804Z,18.51
2018-07-19T00:37:36.805Z,18.43
2018-07-19T00:38:36.806Z,18.39
2018-07-19T00:39:36.807Z,18.39
2018-07-19T00:40:36.809Z,18.37
2018-07-19T00:41:36.812Z,18.33
2018-07-19T00:42:36.812Z,18.48
2018-07-19T00:43:36.814Z,18.39
2018-07-19T00:44:36.814Z,18.43
2018-07-19T00:45:36.817Z,18.45
2018-07-19T00:46:36.817Z,18.43
2018-07-19T00:47:36.819Z,18.27
2018-07-19T00:48:36.822Z,18.31
2018-07-19T00:49:36.823Z,18.31
2018-07-19T00:50:36.822Z,18.15
2018-07-19T00:51:36.824Z,18.13
2018-07-19T00:52:36.825Z,18.19
2018-07-19T00:53:36.827Z,18.21
2018-07-19T00:54:36.829Z,18.13
2018-07-19T00:55:36.829Z,18.16
2018-07-19T00:56:36.830Z,18.19
2018-07-19T00:57:36.833Z,18.21
2018-07-19T00:58:36.834Z,18.16
2018-07-19T00:59:36.834Z,18.13
2018-07-19T01:00:36.837Z,18.06
2018-07-19T01:01:36.837Z,18.02
2018-07-19T01:02:36.838Z,18.05
2018-07-19T01:03:36.839Z,18.08
2018-07-19T01:04:36.840Z,18.05
2018-07-19T01:05:36.842Z,18.03
2018-07-19T01:06:36.846Z,17.97
2018-07-19T01:07:36.846Z,18.06
2018-07-19T01:08:36.848Z,18.02
2018-07-19T01:09:36.847Z,17.97
2018-07-19T01:10:36.848Z,17.91
2018-07-19T01:11:36.849Z,17.88
2018-07-19T01:12:36.851Z,17.87
2018-07-19T01:13:36.852Z,17.94
2018-07-19T01:14:36.852Z,17.90
2018-07-19T01:15:36.854Z,17.91
2018-07-19T01:16:36.856Z,17.91
2018-07-19T01:17:36.856Z,17.78
2018-07-19T01:18:36.857Z,17.78
2018-07-19T01:19:36.860Z,17.75
2018-07-19T01:20:36.876Z,17.78
2018-07-19T01:21:36.862Z,17.71
2018-07-19T01:22:36.863Z,17.76
2018-07-19T01:23:36.863Z,17.71
2018-07-19T01:24:36.864Z,17.57
2018-07-19T01:25:36.869Z,17.65
2018-07-19T01:26:36.866Z,17.59
2018-07-19T01:27:36.866Z,17.50
2018-07-19T01:28:36.870Z,17.60
2018-07-19T01:29:36.869Z,17.63
2018-07-19T01:30:36.870Z,17.59
2018-07-19T01:31:36.871Z,17.49
2018-07-19T01:32:36.877Z,17.57
2018-07-19T01:33:36.873Z,17.53
2018-07-19T01:34:36.873Z,17.47
2018-07-19T01:35:36.874Z,17.41
2018-07-19T01:36:36.877Z,17.38
2018-07-19T01:37:36.877Z,17.41
2018-07-19T01:38:36.877Z,17.37
2018-07-19T01:39:36.878Z,17.37
2018-07-19T01:40:36.882Z,17.49
2018-07-19T01:41:36.881Z,17.44
2018-07-19T01:42:36.881Z,17.41
2018-07-19T01:43:36.883Z,17.39
2018-07-19T01:44:36.886Z,17.46
2018-07-19T01:45:36.884Z,17.31
2018-07-19T01:46:36.885Z,17.37
2018-07-19T01:47:36.885Z,17.39
2018-07-19T01:48:36.886Z,17.35
2018-07-19T01:49:36.887Z,17.44
2018-07-19T01:50:36.900Z,17.38
2018-07-19T01:51:36.888Z,17.39
2018-07-19T01:52:36.890Z,17.44
2018-07-19T01:53:36.891Z,17.41
2018-07-19T01:54:36.889Z,17.39
2018-07-19T01:55:36.891Z,17.39
2018-07-19T01:56:36.897Z,17.53
2018-07-19T01:57:36.894Z,17.52
2018-07-19T01:58:36.894Z,17.54
2018-07-19T01:59:36.896Z,17.49
2018-07-19T02:00:36.897Z,17.47
2018-07-19T02:01:36.897Z,17.53
2018-07-19T02:02:36.897Z,17.44
2018-07-19T02:03:36.898Z,17.41
2018-07-19T02:04:36.902Z,17.46
2018-07-19T02:05:36.901Z,17.49
2018-07-19T02:06:36.900Z,17.41
2018-07-19T02:07:36.901Z,17.41
2018-07-19T02:08:36.903Z,17.47
2018-07-19T02:09:36.903Z,17.38
2018-07-19T02:10:36.904Z,17.47
2018-07-19T02:11:36.905Z,17.50
2018-07-19T02:12:36.906Z,17.52
2018-07-19T02:13:36.907Z,17.54
2018-07-19T02:14:36.907Z,17.52
2018-07-19T02:15:36.907Z,17.46
2018-07-19T02:16:36.909Z,17.42
2018-07-19T02:17:36.911Z,17.38
2018-07-19T02:18:36.910Z,17.46
2018-07-19T02:19:36.911Z,17.46
2018-07-19T02:20:36.912Z,17.37
2018-07-19T02:21:36.913Z,17.35
2018-07-19T02:22:36.915Z,17.34
2018-07-19T02:23:36.914Z,17.34
2018-07-19T02:24:36.915Z,17.31
2018-07-19T02:25:36.916Z,17.34
2018-07-19T02:26:36.916Z,17.38
2018-07-19T02:27:36.917Z,17.42
2018-07-19T02:28:36.917Z,17.39
2018-07-19T02:29:36.922Z,17.42
2018-07-19T02:30:36.918Z,17.39
2018-07-19T02:31:36.922Z,17.39
2018-07-19T02:32:36.920Z,17.39
2018-07-19T02:33:36.921Z,17.41
2018-07-19T02:34:36.920Z,17.41
2018-07-19T02:35:36.922Z,17.32
2018-07-19T02:36:36.923Z,17.39
2018-07-19T02:37:36.924Z,17.32
2018-07-19T02:38:36.925Z,17.31
2018-07-19T02:39:36.925Z,17.27
2018-07-19T02:40:36.925Z,17.24
2018-07-19T02:41:36.926Z,17.28
2018-07-19T02:42:36.927Z,17.23
2018-07-19T02:43:36.927Z,17.23
2018-07-19T02:44:36.929Z,17.17
2018-07-19T02:45:36.929Z,17.20
2018-07-19T02:46:36.929Z,17.28
2018-07-19T02:47:36.931Z,17.30
2018-07-19T02:48:36.930Z,17.24
2018-07-19T02:49:36.931Z,17.20
2018-07-19T02:50:36.931Z,17.22
2018-07-19T02:51:36.932Z,17.22
2018-07-19T02:52:36.933Z,17.09
2018-07-19T02:53:36.934Z,17.10
2018-07-19T02:54:36.935Z,17.20
2018-07-19T02:55:36.936Z,17.16
2018-07-19T02:56:36.937Z,17.22
2018-07-19T02:57:36.937Z,17.17
2018-07-19T02:58:36.937Z,17.22
2018-07-19T02:59:36.936Z,17.17
2018-07-19T03:00:36.937Z,17.17
2018-07-19T03:01:36.942Z,17.10
2018-07-19T03:02:36.938Z,16.98
2018-07-19T03:03:36.939Z,17.05
2018-07-19T03:04:36.939Z,16.97
2018-07-19T03:05:36.940Z,17.04
2018-07-19T03:06:36.959Z,16.97
2018-07-19T03:07:36.970Z,16.89
2018-07-19T03:08:36.941Z,16.86
2018-07-19T03:09:36.942Z,16.80
2018-07-19T03:10:36.943Z,16.82
2018-07-19T03:11:36.943Z,16.79
2018-07-19T03:12:36.944Z,16.80
2018-07-19T03:13:36.944Z,16.80
2018-07-19T03:14:36.944Z,16.79
2018-07-19T03:15:36.945Z,16.69
2018-07-19T03:16:36.945Z,16.69
2018-07-19T03:17:36.946Z,16.68
2018-07-19T03:18:36.946Z,16.65
2018-07-19T03:19:36.946Z,16.72
2018-07-19T03:20:36.946Z,16.64
2018-07-19T03:21:36.947Z,16.64
2018-07-19T03:22:36.947Z,16.65
2018-07-19T03:23:36.947Z,16.68
2018-07-19T03:24:36.948Z,16.79
2018-07-19T03:25:36.950Z,16.77
2018-07-19T03:26:36.948Z,16.77
2018-07-19T03:27:36.949Z,16.82
2018-07-19T03:28:36.950Z,16.83
2018-07-19T03:29:36.951Z,16.76
2018-07-19T03:30:36.950Z,16.72
2018-07-19T03:31:36.952Z,16.68
2018-07-19T03:32:36.953Z,16.62
2018-07-19T03:33:36.952Z,16.59
2018-07-19T03:34:36.951Z,16.59
2018-07-19T03:35:36.951Z,16.65
2018-07-19T03:36:36.955Z,16.59
2018-07-19T03:37:36.953Z,16.58
2018-07-19T03:38:36.952Z,16.55
2018-07-19T03:39:36.953Z,16.58
2018-07-19T03:40:36.954Z,16.44
2018-07-19T03:41:36.954Z,16.54
2018-07-19T03:42:36.953Z,16.58
2018-07-19T03:43:36.954Z,16.62
2018-07-19T03:44:36.954Z,16.58
2018-07-19T03:45:36.955Z,16.65
2018-07-19T03:46:36.955Z,16.54
2018-07-19T03:47:36.956Z,16.55
2018-07-19T03:48:36.954Z,16.57
2018-07-19T03:49:36.956Z,16.57
2018-07-19T03:50:37.000Z,16.64
2018-07-19T03:51:36.956Z,16.68
2018-07-19T03:52:36.956Z,16.74
2018-07-19T03:53:36.957Z,16.65
2018-07-19T03:54:36.957Z,16.69
2018-07-19T03:55:36.957Z,16.68
2018-07-19T03:56:36.958Z,16.62
2018-07-19T03:57:36.958Z,16.73
2018-07-19T03:58:36.959Z,16.66
2018-07-19T03:59:36.958Z,16.64
2018-07-19T04:00:36.959Z,16.68
2018-07-19T04:01:36.957Z,16.72
2018-07-19T04:02:36.958Z,16.72
2018-07-19T04:03:36.959Z,16.77
2018-07-19T04:04:36.960Z,16.76
2018-07-19T04:05:36.961Z,16.79
2018-07-19T04:06:36.960Z,16.73
2018-07-19T04:07:36.960Z,16.66
2018-07-19T04:08:36.960Z,16.76
2018-07-19T04:09:36.962Z,16.72
2018-07-19T04:10:36.960Z,16.76
2018-07-19T04:11:36.964Z,16.74
2018-07-19T04:12:36.961Z,16.74
2018-07-19T04:13:36.963Z,16.82
2018-07-19T04:14:36.964Z,16.79
2018-07-19T04:15:36.962Z,16.76
2018-07-19T04:16:36.964Z,16.69
2018-07-19T04:17:36.963Z,16.76
2018-07-19T04:18:36.962Z,16.65
2018-07-19T04:19:36.962Z,16.68
2018-07-19T04:20:36.964Z,16.61
2018-07-19T04:21:36.963Z,16.61
2018-07-19T04:22:36.963Z,16.62
2018-07-19T04:23:36.964Z,16.62
2018-07-19T04:24:36.965Z,16.55
2018-07-19T04:25:36.965Z,16.57
2018-07-19T04:26:36.965Z,16.57
2018-07-19T04:27:36.964Z,16.55
2018-07-19T04:28:36.965Z,16.50
2018-07-19T04:29:36.965Z,16.55
2018-07-19T04:30:36.965Z,16.50
2018-07-19T04:31:36.965Z,16.55
2018-07-19T04:32:36.966Z,16.62
2018-07-19T04:33:36.966Z,16.49
2018-07-19T04:34:36.966Z,16.55
2018-07-19T04:35:36.966Z,16.61
2018-07-19T04:36:36.967Z,16.49
2018-07-19T04:37:36.971Z,16.54
2018-07-19T04:38:36.968Z,16.57
2018-07-19T04:39:36.967Z,16.51
2018-07-19T04:40:36.969Z,16.64
2018-07-19T04:41:36.968Z,16.66
2018-07-19T04:42:36.970Z,16.68
2018-07-19T04:43:36.968Z,16.62
2018-07-19T04:44:36.968Z,16.74
2018-07-19T04:45:36.974Z,16.79
2018-07-19T04:46:36.968Z,16.69
2018-07-19T04:47:36.969Z,16.77
2018-07-19T04:48:36.969Z,16.72
2018-07-19T04:49:36.970Z,16.72
2018-07-19T04:50:36.972Z,16.80
2018-07-19T04:51:36.971Z,16.79
2018-07-19T04:52:36.971Z,16.82
2018-07-19T04:53:36.971Z,16.89
2018-07-19T04:54:36.999Z,16.91
2018-07-19T04:55:36.971Z,16.94
2018-07-19T04:56:36.973Z,16.98
2018-07-19T04:57:36.973Z,16.99
2018-07-19T04:58:36.973Z,16.98
2018-07-19T04:59:36.972Z,16.99
2018-07-19T05:00:36.975Z,17.01
2018-07-19T05:01:36.987Z,17.07
2018-07-19T05:02:36.973Z,17.09
2018-07-19T05:03:36.974Z,17.13
2018-07-19T05:04:36.974Z,17.23
2018-07-19T05:05:36.976Z,17.22
2018-07-19T05:06:36.976Z,17.17
2018-07-19T05:07:36.976Z,17.23
2018-07-19T05:08:36.977Z,17.31
2018-07-19T05:09:36.977Z,17.24
2018-07-19T05:10:36.978Z,17.37
2018-07-19T05:11:36.979Z,17.30
2018-07-19T05:12:36.979Z,17.31
2018-07-19T05:13:36.980Z,17.37
2018-07-19T05:14:36.979Z,17.35
2018-07-19T05:15:36.981Z,17.41
2018-07-19T05:16:36.982Z,17.41
2018-07-19T05:17:36.982Z,17.38
2018-07-19T05:18:36.983Z,17.41
2018-07-19T05:19:36.983Z,17.44
2018-07-19T05:20:36.982Z,17.50
2018-07-19T05:21:36.984Z,17.47
2018-07-19T05:22:36.984Z,17.53
2018-07-19T05:23:36.991Z,17.50
2018-07-19T05:24:36.985Z,17.63
2018-07-19T05:25:36.986Z,17.60
2018-07-19T05:26:36.987Z,17.71
2018-07-19T05:27:36.990Z,17.78
2018-07-19T05:28:36.989Z,17.63
2018-07-19T05:29:36.990Z,17.66
2018-07-19T05:30:36.989Z,17.69
2018-07-19T05:31:36.993Z,17.71
2018-07-19T05:32:36.991Z,17.75
2018-07-19T05:33:36.993Z,17.71
2018-07-19T05:34:37.018Z,17.79
2018-07-19T05:35:36.998Z,17.84
2018-07-19T05:36:36.995Z,17.90
2018-07-19T05:37:36.996Z,17.95
2018-07-19T05:38:36.997Z,17.86
2018-07-19T05:39:36.996Z,17.95
2018-07-19T05:40:37.012Z,17.91
2018-07-19T05:41:37.000Z,17.94
2018-07-19T05:42:36.999Z,18.03
2018-07-19T05:43:37.013Z,17.97
2018-07-19T05:44:37.002Z,17.95
2018-07-19T05:45:37.007Z,18.03
2018-07-19T05:46:37.004Z,18.11
2018-07-19T05:47:37.006Z,18.18
2018-07-19T05:48:37.005Z,18.19
2018-07-19T05:49:37.007Z,18.18
2018-07-19T05:50:37.007Z,18.34
2018-07-19T05:51:37.007Z,18.26
2018-07-19T05:52:37.010Z,18.30
2018-07-19T05:53:37.011Z,18.24
2018-07-19T05:54:37.011Z,18.26
2018-07-19T05:55:37.012Z,18.31
2018-07-19T05:56:37.013Z,18.42
2018-07-19T05:57:37.015Z,18.42
2018-07-19T05:58:37.015Z,18.42
2018-07-19T05:59:37.017Z,18.46
2018-07-19T06:00:37.017Z,18.55
2018-07-19T06:01:37.020Z,18.57
2018-07-19T06:02:37.019Z,18.66
2018-07-19T06:03:37.020Z,18.71
2018-07-19T06:04:37.022Z,18.68
2018-07-19T06:05:37.103Z,18.70
2018-07-19T06:06:37.027Z,18.76
2018-07-19T06:07:37.026Z,18.78
2018-07-19T06:08:37.027Z,18.74
2018-07-19T06:09:37.069Z,18.70
2018-07-19T06:10:37.030Z,18.91
2018-07-19T06:11:37.030Z,18.82
2018-07-19T06:12:37.032Z,18.88
2018-07-19T06:13:37.034Z,18.89
2018-07-19T06:14:37.036Z,18.91
2018-07-19T06:15:37.036Z,18.89
2018-07-19T06:16:37.040Z,19.01
2018-07-19T06:17:37.038Z,19.00
2018-07-19T06:18:37.102Z,19.04
2018-07-19T06:19:37.083Z,19.04
2018-07-19T06:20:37.332Z,18.97
2018-07-19T06:21:37.045Z,19.04
2018-07-19T06:22:37.046Z,19.07
2018-07-19T06:23:37.049Z,19.17
2018-07-19T06:24:37.049Z,19.26
2018-07-19T06:25:37.053Z,19.32
2018-07-19T06:26:37.053Z,19.39
2018-07-19T06:27:37.054Z,19.49
2018-07-19T06:28:37.057Z,19.53
2018-07-19T06:29:37.057Z,19.52
2018-07-19T06:30:37.059Z,19.64
2018-07-19T06:31:37.096Z,19.62
2018-07-19T06:32:37.063Z,19.72
2018-07-19T06:33:37.068Z,19.72
2018-07-19T06:34:37.066Z,19.89
2018-07-19T06:35:37.068Z,19.77
2018-07-19T06:36:37.070Z,19.93
2018-07-19T06:37:37.074Z,19.96
2018-07-19T06:38:37.073Z,19.99
2018-07-19T06:39:37.076Z,20.00
2018-07-19T06:40:37.078Z,20.03
2018-07-19T06:41:37.081Z,20.07
2018-07-19T06:42:37.083Z,20.21
2018-07-19T06:43:37.084Z,20.19
2018-07-19T06:44:37.086Z,20.15
2018-07-19T06:45:37.090Z,20.24
2018-07-19T06:46:37.092Z,20.27
2018-07-19T06:47:37.093Z,20.34
2018-07-19T06:48:37.095Z,20.42
2018-07-19T06:49:37.098Z,20.53
2018-07-19T06:50:37.099Z,20.49
2018-07-19T06:51:37.101Z,20.60
2018-07-19T06:52:37.105Z,20.58
2018-07-19T06:53:37.107Z,20.59
2018-07-19T06:54:37.108Z,20.63
2018-07-19T06:55:37.120Z,20.64
2018-07-19T06:56:37.113Z,20.63
2018-07-19T06:57:37.205Z,20.75
2018-07-19T06:58:37.120Z,20.80
2018-07-19T06:59:37.121Z,20.96
2018-07-19T07:00:37.124Z,20.96
2018-07-19T07:01:37.128Z,20.96
2018-07-19T07:02:37.129Z,21.04
2018-07-19T07:03:37.166Z,21.11
2018-07-19T07:04:37.135Z,21.10
2018-07-19T07:05:37.138Z,21.17
2018-07-19T07:06:37.140Z,21.26
2018-07-19T07:07:37.149Z,21.22
2018-07-19T07:08:37.148Z,21.28
2018-07-19T07:09:37.149Z,21.35
2018-07-19T07:10:37.179Z,21.35
2018-07-19T07:11:37.154Z,21.35
2018-07-19T07:12:37.158Z,21.30
2018-07-19T07:13:37.177Z,21.38
2018-07-19T07:14:37.162Z,21.50
2018-07-19T07:15:37.167Z,21.62
2018-07-19T07:16:37.169Z,21.59
2018-07-19T07:17:37.174Z,21.65
2018-07-19T07:18:37.181Z,21.66
2018-07-19T07:19:37.182Z,21.70
2018-07-19T07:20:37.185Z,21.62
2018-07-19T07:21:37.187Z,21.72
2018-07-19T07:22:37.188Z,21.62
2018-07-19T07:23:37.192Z,21.59
2018-07-19T07:24:37.196Z,21.60
2018-07-19T07:25:37.301Z,21.59
2018-07-19T07:26:37.203Z,21.72
2018-07-19T07:27:37.207Z,21.85
2018-07-19T07:28:37.211Z,22.10
2018-07-19T07:29:37.216Z,22.62
2018-07-19T07:30:37.218Z,22.81
2018-07-19T07:31:37.224Z,23.13
2018-07-19T07:32:37.227Z,23.47
2018-07-19T07:33:37.232Z,23.49
2018-07-19T07:34:37.236Z,23.70
2018-07-19T07:35:37.243Z,23.66
2018-07-19T07:36:37.248Z,23.79
2018-07-19T07:37:37.253Z,23.96
2018-07-19T07:38:37.258Z,24.07
2018-07-19T07:39:37.265Z,24.18
2018-07-19T07:40:37.271Z,24.37
2018-07-19T07:41:37.278Z,24.48
2018-07-19T07:42:37.284Z,24.55
2018-07-19T07:43:37.292Z,24.26
2018-07-19T07:44:37.300Z,24.31
2018-07-19T07:45:37.307Z,24.58
2018-07-19T07:46:37.315Z,24.79
2018-07-19T07:47:37.323Z,24.82
2018-07-19T07:48:37.335Z,24.89
2018-07-19T07:49:37.343Z,25.04
2018-07-19T07:50:37.347Z,25.01
2018-07-19T07:51:37.355Z,25.00
2018-07-19T07:52:37.362Z,24.74
2018-07-19T07:53:37.375Z,24.56
2018-07-19T07:54:37.378Z,24.29
2018-07-19T07:55:37.385Z,24.26
2018-07-19T07:56:37.394Z,24.19
2018-07-19T07:57:37.401Z,24.07
2018-07-19T07:58:37.406Z,23.71
2018-07-19T07:59:37.414Z,23.69
2018-07-19T08:00:37.421Z,23.69
2018-07-19T08:01:37.428Z,23.52
2018-07-19T08:02:37.434Z,23.64
2018-07-19T08:03:37.442Z,23.74
2018-07-19T08:04:37.450Z,23.86
2018-07-19T08:05:37.457Z,24.01
2018-07-19T08:06:37.464Z,24.06
2018-07-19T08:07:37.473Z,24.29
2018-07-19T08:08:37.482Z,24.69
2018-07-19T08:09:37.492Z,25.24
2018-07-19T08:10:37.498Z,25.39
2018-07-19T08:11:37.510Z,25.41
2018-07-19T08:12:37.520Z,25.85
2018-07-19T08:13:37.532Z,26.27
2018-07-19T08:14:37.541Z,26.67
2018-07-19T08:15:37.746Z,26.79
2018-07-19T08:16:37.564Z,26.91
2018-07-19T08:17:37.575Z,27.16
2018-07-19T08:18:37.592Z,27.29
2018-07-19T08:19:37.600Z,27.52
2018-07-19T08:20:37.616Z,27.90
2018-07-19T08:21:37.678Z,28.16
2018-07-19T08:22:37.640Z,28.27
2018-07-19T08:23:37.652Z,28.13
2018-07-19T08:24:37.665Z,27.68
2018-07-19T08:25:37.679Z,27.25
2018-07-19T08:26:37.693Z,27.01
2018-07-19T08:27:37.706Z,27.11
2018-07-19T08:28:37.720Z,27.47
2018-07-19T08:29:37.734Z,27.90
2018-07-19T08:30:37.746Z,28.22
2018-07-19T08:31:37.762Z,28.53
2018-07-19T08:32:37.774Z,28.78
2018-07-19T08:33:37.789Z,29.00
2018-07-19T08:34:37.803Z,28.94
2018-07-19T08:35:37.817Z,28.94
2018-07-19T08:36:37.832Z,29.10
2018-07-19T08:37:37.847Z,29.21
2018-07-19T08:38:37.861Z,29.43
2018-07-19T08:39:37.877Z,29.69
2018-07-19T08:40:37.891Z,28.89
2018-07-19T08:41:37.906Z,28.40
2018-07-19T08:42:37.921Z,28.33
2018-07-19T08:43:37.937Z,28.15
2018-07-19T08:44:37.952Z,27.67
2018-07-19T08:45:37.989Z,27.68
2018-07-19T08:46:37.980Z,27.75
2018-07-19T08:47:37.995Z,28.10
2018-07-19T08:48:38.011Z,28.43
2018-07-19T08:49:38.026Z,28.65
2018-07-19T08:50:38.040Z,28.47
2018-07-19T08:51:38.072Z,28.10
2018-07-19T08:52:38.069Z,27.97
2018-07-19T08:53:38.086Z,27.86
2018-07-19T08:54:38.100Z,28.22
2018-07-19T08:55:38.115Z,28.53
2018-07-19T08:56:38.172Z,28.77
2018-07-19T08:57:38.144Z,29.02
2018-07-19T08:58:38.238Z,28.89
2018-07-19T08:59:38.175Z,29.00
2018-07-19T09:00:38.190Z,28.65
2018-07-19T09:01:38.206Z,28.16
2018-07-19T09:02:38.220Z,28.10
2018-07-19T09:03:38.235Z,27.75
2018-07-19T09:04:38.252Z,27.76
2018-07-19T09:05:38.266Z,27.79
2018-07-19T09:06:38.282Z,27.64
2018-07-19T09:07:38.299Z,27.60
2018-07-19T09:08:38.366Z,27.61
2018-07-19T09:09:38.324Z,27.38
2018-07-19T09:10:38.338Z,27.33
2018-07-19T09:11:38.354Z,27.16
2018-07-19T09:12:38.367Z,27.07
2018-07-19T09:13:38.384Z,26.88
2018-07-19T09:14:38.396Z,27.03
2018-07-19T09:15:38.410Z,26.98
2018-07-19T09:16:38.426Z,27.11
2018-07-19T09:17:38.440Z,27.40
2018-07-19T09:18:38.456Z,27.79
2018-07-19T09:19:38.570Z,27.81
2018-07-19T09:20:38.481Z,27.90
2018-07-19T09:21:38.496Z,27.58
2018-07-19T09:22:38.511Z,27.38
2018-07-19T09:23:38.563Z,27.28
2018-07-19T09:24:38.537Z,27.25
2018-07-19T09:25:38.557Z,27.40
2018-07-19T09:26:38.607Z,27.52
2018-07-19T09:27:38.580Z,27.94
2018-07-19T09:28:38.593Z,28.04
2018-07-19T09:29:38.607Z,28.19
2018-07-19T09:30:38.621Z,28.47
2018-07-19T09:31:38.636Z,28.65
2018-07-19T09:32:38.655Z,28.62
2018-07-19T09:33:38.663Z,28.83
2018-07-19T09:34:38.875Z,29.07
2018-07-19T09:35:38.691Z,29.40
2018-07-19T09:36:38.705Z,29.58
2018-07-19T09:37:38.720Z,29.94
2018-07-19T09:38:38.766Z,30.10
2018-07-19T09:39:38.747Z,30.32
2018-07-19T09:40:38.761Z,30.11
2018-07-19T09:41:38.776Z,29.74
2018-07-19T09:42:38.789Z,29.05
2018-07-19T09:43:38.831Z,28.64
2018-07-19T09:44:38.819Z,28.60
2018-07-19T09:45:38.834Z,28.78
2018-07-19T09:46:38.846Z,28.89
2018-07-19T09:47:38.865Z,29.15
2018-07-19T09:48:38.875Z,29.59
2018-07-19T09:49:38.890Z,29.86
2018-07-19T09:50:38.902Z,30.02
2018-07-19T09:51:38.918Z,30.21
2018-07-19T09:52:38.932Z,30.48
2018-07-19T09:53:38.947Z,30.51
2018-07-19T09:54:38.968Z,30.69
2018-07-19T09:55:38.975Z,30.05
2018-07-19T09:56:38.991Z,29.86
2018-07-19T09:57:39.006Z,29.99
2018-07-19T09:58:39.018Z,29.90
2018-07-19T09:59:39.033Z,29.83
2018-07-19T10:00:39.048Z,29.57
2018-07-19T10:01:39.063Z,29.16
2018-07-19T10:02:39.077Z,29.37
2018-07-19T10:03:39.090Z,29.67
2018-07-19T10:04:39.105Z,29.98
2018-07-19T10:05:39.143Z,30.18
2018-07-19T10:06:39.133Z,30.56
2018-07-19T10:07:39.171Z,30.76
2018-07-19T10:08:39.162Z,30.70
2018-07-19T10:09:39.175Z,30.81
2018-07-19T10:10:39.190Z,30.77
2018-07-19T10:11:39.205Z,30.40
2018-07-19T10:12:39.220Z,30.48
2018-07-19T10:13:39.299Z,30.71
2018-07-19T10:14:39.246Z,30.95
2018-07-19T10:15:39.267Z,31.15
2018-07-19T10:16:39.277Z,31.13
2018-07-19T10:17:39.292Z,31.26
2018-07-19T10:18:39.305Z,31.44
2018-07-19T10:19:39.319Z,31.18
2018-07-19T10:20:39.381Z,30.98
2018-07-19T10:21:39.349Z,30.95
2018-07-19T10:22:39.364Z,30.91
2018-07-19T10:23:39.447Z,30.98
2018-07-19T10:24:39.392Z,30.51
2018-07-19T10:25:39.406Z,29.98
2018-07-19T10:26:39.430Z,29.98
2018-07-19T10:27:39.435Z,30.16
2018-07-19T10:28:39.499Z,30.29
2018-07-19T10:29:39.497Z,30.62
2018-07-19T10:30:39.477Z,30.81
2018-07-19T10:31:39.491Z,30.58
2018-07-19T10:32:39.526Z,30.63
2018-07-19T10:33:39.519Z,30.43
2018-07-19T10:34:39.533Z,30.54
2018-07-19T10:35:39.549Z,30.46
2018-07-19T10:36:39.562Z,30.65
2018-07-19T10:37:39.608Z,30.91
2018-07-19T10:38:39.589Z,31.10
2018-07-19T10:39:39.605Z,31.41
2018-07-19T10:40:39.639Z,31.44
2018-07-19T10:41:39.632Z,31.66
2018-07-19T10:42:39.645Z,31.69
2018-07-19T10:43:39.658Z,31.28
2018-07-19T10:44:39.673Z,31.13
2018-07-19T10:45:39.687Z,31.26
2018-07-19T10:46:39.702Z,31.42
2018-07-19T10:47:39.714Z,31.51
2018-07-19T10:48:39.762Z,31.37
2018-07-19T10:49:39.741Z,31.26
2018-07-19T10:50:39.757Z,30.92
2018-07-19T10:51:39.777Z,30.32
2018-07-19T10:52:39.784Z,30.43
2018-07-19T10:53:39.796Z,30.69
2018-07-19T10:54:39.810Z,30.54
2018-07-19T10:55:39.822Z,30.26
2018-07-19T10:56:39.838Z,29.86
2018-07-19T10:57:39.853Z,29.94
2018-07-19T10:58:39.865Z,29.80
2018-07-19T10:59:39.878Z,29.95
2018-07-19T11:00:39.896Z,30.13
2018-07-19T11:01:39.903Z,30.39
2018-07-19T11:02:39.965Z,30.74
2018-07-19T11:03:39.932Z,30.95
2018-07-19T11:04:39.947Z,31.08
2018-07-19T11:05:39.962Z,31.07
2018-07-19T11:06:39.972Z,31.25
2018-07-19T11:07:39.985Z,31.41
2018-07-19T11:08:40.000Z,31.00
2018-07-19T11:09:40.032Z,30.58
2018-07-19T11:10:40.028Z,30.29
2018-07-19T11:11:40.038Z,30.13
2018-07-19T11:12:40.052Z,30.01
2018-07-19T11:13:40.065Z,30.17
2018-07-19T11:14:40.077Z,30.08
2018-07-19T11:15:40.091Z,29.73
2018-07-19T11:16:40.104Z,29.71
2018-07-19T11:17:40.117Z,29.73
2018-07-19T11:18:40.130Z,29.96
2018-07-19T11:19:40.143Z,30.11
2018-07-19T11:20:40.155Z,30.21
2018-07-19T11:21:40.169Z,30.39
2018-07-19T11:22:40.189Z,30.59
2018-07-19T11:23:40.194Z,30.69
2018-07-19T11:24:40.208Z,30.35
2018-07-19T11:25:40.220Z,30.03
2018-07-19T11:26:40.232Z,29.94
2018-07-19T11:27:40.245Z,29.80
2018-07-19T11:28:40.259Z,29.57
2018-07-19T11:29:40.271Z,29.46
2018-07-19T11:30:40.284Z,29.46
2018-07-19T11:31:40.297Z,29.62
2018-07-19T11:32:40.309Z,29.94
2018-07-19T11:33:40.321Z,29.87
2018-07-19T11:34:40.334Z,29.68
2018-07-19T11:35:40.350Z,29.61
2018-07-19T11:36:40.360Z,29.89
2018-07-19T11:37:40.372Z,29.86
2018-07-19T11:38:40.383Z,29.71
2018-07-19T11:39:40.397Z,29.57
2018-07-19T11:40:40.409Z,29.57
2018-07-19T11:41:40.481Z,29.64
2018-07-19T11:42:40.433Z,29.57
2018-07-19T11:43:40.447Z,29.61
2018-07-19T11:44:40.458Z,29.21
2018-07-19T11:45:40.471Z,29.20
2018-07-19T11:46:40.484Z,29.21
2018-07-19T11:47:40.492Z,29.21
2018-07-19T11:48:40.507Z,29.32
2018-07-19T11:49:40.517Z,29.50
2018-07-19T11:50:40.529Z,29.64
2018-07-19T11:51:40.538Z,29.84
2018-07-19T11:52:40.556Z,30.05
2018-07-19T11:53:40.561Z,30.35
2018-07-19T11:54:40.572Z,29.81
2018-07-19T11:55:40.642Z,29.42
2018-07-19T11:56:40.595Z,29.47
2018-07-19T11:57:40.608Z,29.32
2018-07-19T11:58:40.618Z,29.06
2018-07-19T11:59:40.630Z,29.02
2018-07-19T12:00:40.642Z,29.10
2018-07-19T12:01:40.657Z,28.72
2018-07-19T12:02:40.663Z,28.46
2018-07-19T12:03:40.676Z,28.06
2018-07-19T12:04:40.685Z,28.06
2018-07-19T12:05:40.694Z,28.04
2018-07-19T12:06:40.735Z,27.98
2018-07-19T12:07:40.719Z,27.86
2018-07-19T12:08:40.726Z,28.01
2018-07-19T12:09:40.736Z,28.22
2018-07-19T12:10:40.745Z,28.40
2018-07-19T12:11:40.756Z,28.77
2018-07-19T12:12:40.814Z,29.24
2018-07-19T12:13:40.797Z,29.32
2018-07-19T12:14:40.785Z,29.10
2018-07-19T12:15:40.794Z,29.02
2018-07-19T12:16:40.886Z,28.93
2018-07-19T12:17:40.848Z,28.97
2018-07-19T12:18:40.825Z,28.92
2018-07-19T12:19:40.877Z,28.96
2018-07-19T12:20:40.848Z,29.09
2018-07-19T12:21:40.943Z,28.89
2018-07-19T12:22:40.897Z,29.07
2018-07-19T12:23:40.877Z,29.22
2018-07-19T12:24:40.888Z,29.65
2018-07-19T12:25:40.897Z,29.94
2018-07-19T12:26:41.128Z,30.06
2018-07-19T12:27:40.921Z,29.96
2018-07-19T12:28:41.015Z,30.03
2018-07-19T12:29:41.093Z,30.24
2018-07-19T12:30:40.953Z,30.29
2018-07-19T12:31:40.960Z,30.24
2018-07-19T12:32:40.970Z,30.01
2018-07-19T12:33:40.992Z,29.73
2018-07-19T12:34:40.990Z,29.65
2018-07-19T12:35:41.000Z,29.84
2018-07-19T12:36:41.012Z,30.02
2018-07-19T12:37:41.022Z,30.03
2018-07-19T12:38:41.034Z,30.13
2018-07-19T12:39:41.042Z,29.86
2018-07-19T12:40:41.051Z,29.46
2018-07-19T12:41:41.064Z,29.22
2018-07-19T12:42:41.105Z,29.15
2018-07-19T12:43:41.084Z,29.15
2018-07-19T12:44:41.092Z,29.46
2018-07-19T12:45:41.105Z,29.79
2018-07-19T12:46:41.119Z,29.92
2018-07-19T12:47:41.123Z,30.10
2018-07-19T12:48:41.135Z,30.27
2018-07-19T12:49:41.145Z,30.39
2018-07-19T12:50:41.158Z,30.39
2018-07-19T12:51:41.165Z,30.48
2018-07-19T12:52:41.176Z,30.67